Time;durP1;ratioP1;P1;durP2;ratioP2;P2;SDS_P1;SDS_P2;PMS_P1;PMS_P2;Temp;Humidity;BMP_temperature;BMP_pressure;BME280_temperature;BME280_humidity;BME280_pressure;Samples;Min_cycle;Max_cycle;Signal;HPM_P1;HPM_P2
2021/05/28 00:01:57;;;;;;;4.80;3.92;;;;;;;9.03;74.39;100294.64;1715494;83;21148;-79
2021/05/28 00:04:23;;;;;;;4.80;3.67;;;;;;;9.01;74.27;100301.79;1715757;83;21061;-79
2021/05/28 00:06:49;;;;;;;5.28;3.40;;;;;;;9.00;74.64;100302.75;1715453;83;21068;-79
2021/05/28 00:09:15;;;;;;;4.00;3.52;;;;;;;8.97;74.54;100303.78;1715134;83;21050;-80
2021/05/28 00:11:41;;;;;;;5.20;3.02;;;;;;;8.98;74.91;100304.63;1712525;84;21022;-79
2021/05/28 00:14:08;;;;;;;5.15;3.40;;;;;;;8.95;74.77;100305.69;1712636;84;21033;-79
2021/05/28 00:16:35;;;;;;;4.67;3.42;;;;;;;8.93;74.87;100312.36;1712430;84;21552;-79
2021/05/28 00:19:01;;;;;;;4.12;3.00;;;;;;;8.92;75.06;100314.63;1712488;84;21002;-79
2021/05/28 00:21:26;;;;;;;4.20;2.95;;;;;;;8.91;74.96;100313.39;1712576;84;21002;-79
2021/05/28 00:23:52;;;;;;;4.33;3.25;;;;;;;8.89;74.71;100310.88;1712420;84;21026;-79
2021/05/28 00:26:18;;;;;;;3.05;2.62;;;;;;;8.88;74.96;100317.09;1712636;84;21049;-79
2021/05/28 00:28:49;;;;;;;5.15;3.58;;;;;;;8.85;74.58;100319.92;1712385;83;21026;-79
2021/05/28 00:31:12;;;;;;;5.42;2.95;;;;;;;8.83;74.24;100316.54;1712086;83;21105;-80
2021/05/28 00:33:38;;;;;;;4.15;3.22;;;;;;;8.81;74.22;100309.20;1686752;85;21010;-80
2021/05/28 00:36:04;;;;;;;5.05;3.45;;;;;;;8.79;74.47;100314.22;1687030;85;21528;-80
2021/05/28 00:38:30;;;;;;;4.67;3.35;;;;;;;8.76;74.40;100315.26;1702073;83;21524;-80
2021/05/28 00:40:56;;;;;;;3.42;2.80;;;;;;;8.73;74.22;100312.83;1712420;84;21141;-80
2021/05/28 00:43:22;;;;;;;4.25;2.98;;;;;;;8.70;74.19;100314.34;1712479;84;21026;-80
2021/05/28 00:45:48;;;;;;;4.40;3.15;;;;;;;8.68;74.35;100309.63;1712457;84;21168;-80
2021/05/28 00:48:14;;;;;;;5.60;3.45;;;;;;;8.64;74.41;100310.78;1712654;84;21117;-80
2021/05/28 00:50:40;;;;;;;2.98;2.62;;;;;;;8.61;74.12;100316.24;1712441;84;21086;-80
2021/05/28 00:53:06;;;;;;;4.40;3.08;;;;;;;8.59;74.45;100315.04;1712453;84;21034;-80
2021/05/28 00:55:33;;;;;;;3.95;3.35;;;;;;;8.58;74.43;100316.44;1712473;84;21018;-80
2021/05/28 00:57:59;;;;;;;5.53;4.05;;;;;;;8.56;74.31;100320.97;1712433;84;21010;-80
2021/05/28 01:00:28;;;;;;;5.72;4.00;;;;;;;8.52;74.49;100312.41;1712472;84;21010;-79
2021/05/28 01:02:55;;;;;;;6.90;4.78;;;;;;;8.51;74.39;100319.09;1712313;84;21595;-80
2021/05/28 01:05:22;;;;;;;7.12;4.50;;;;;;;8.45;74.44;100323.79;1712588;83;21022;-82
2021/05/28 01:07:48;;;;;;;6.30;4.17;;;;;;;8.42;74.51;100317.44;1715299;83;21057;-82
2021/05/28 01:10:15;;;;;;;8.98;4.58;;;;;;;8.41;74.48;100321.47;1715635;83;21017;-82
2021/05/28 01:12:42;;;;;;;7.40;4.53;;;;;;;8.39;74.70;100318.95;1715315;83;21022;-82
2021/05/28 01:15:09;;;;;;;7.97;5.33;;;;;;;8.36;74.85;100317.80;1691322;83;21041;-82
2021/05/28 01:17:36;;;;;;;6.47;4.65;;;;;;;8.34;74.62;100311.77;1715196;83;21088;-82
2021/05/28 01:20:06;;;;;;;9.60;5.08;;;;;;;8.34;74.90;100316.20;1712591;84;21025;-82
2021/05/28 01:22:33;;;;;;;9.13;5.08;;;;;;;8.30;74.95;100322.59;1712518;83;21078;-82
2021/05/28 01:25:00;;;;;;;7.75;4.92;;;;;;;8.27;75.01;100316.22;1712481;84;21023;-82
2021/05/28 01:27:29;;;;;;;9.25;6.50;;;;;;;8.23;75.00;100312.47;1712274;84;21061;-82
2021/05/28 01:29:56;;;;;;;8.00;5.53;;;;;;;8.20;75.07;100319.70;1712488;84;21030;-82
2021/05/28 01:32:22;;;;;;;9.38;5.33;;;;;;;8.17;75.07;100314.16;1712419;84;21552;-82
2021/05/28 01:34:48;;;;;;;8.35;5.35;;;;;;;8.15;75.27;100317.34;1714322;83;21189;-82
2021/05/28 01:37:14;;;;;;;8.53;5.12;;;;;;;8.12;75.34;100310.96;1715373;83;21033;-82
2021/05/28 01:39:47;;;;;;;8.93;4.50;;;;;;;8.09;75.50;100311.15;1715493;83;21530;-82
2021/05/28 01:42:13;;;;;;;8.05;5.05;;;;;;;8.07;75.45;100318.78;1715333;83;21081;-81
2021/05/28 01:44:39;;;;;;;7.22;4.55;;;;;;;8.05;75.56;100316.70;1715363;83;21069;-81
2021/05/28 01:47:05;;;;;;;8.15;4.28;;;;;;;8.01;75.66;100316.53;1715479;83;21085;-81
2021/05/28 01:49:31;;;;;;;7.50;4.28;;;;;;;7.97;75.63;100315.88;1715571;83;21021;-81
2021/05/28 01:51:57;;;;;;;7.72;4.60;;;;;;;7.94;75.51;100322.16;1715746;83;21060;-81
2021/05/28 01:54:23;;;;;;;7.95;5.33;;;;;;;7.92;75.48;100321.40;1715786;83;21072;-82
2021/05/28 01:56:51;;;;;;;7.53;4.53;;;;;;;7.90;75.29;100324.61;1715566;83;21551;-82
2021/05/28 01:59:25;;;;;;;8.45;5.10;;;;;;;7.90;75.29;100324.61;1715804;83;21005;-82
2021/05/28 02:01:55;;;;;;;9.50;5.17;;;;;;;7.91;75.55;100326.77;1711041;83;21116;-82
2021/05/28 02:04:23;;;;;;;6.75;5.15;;;;;;;7.89;75.58;100330.78;1712676;84;21030;-82
2021/05/28 02:06:51;;;;;;;11.53;5.95;;;;;;;7.86;75.65;100328.34;1712517;84;21082;-82
2021/05/28 02:09:17;;;;;;;9.83;5.50;;;;;;;7.86;75.78;100333.59;1712566;83;20994;-82
2021/05/28 02:11:44;;;;;;;9.10;5.15;;;;;;;7.82;75.56;100329.95;1712339;83;21097;-81
2021/05/28 02:14:11;;;;;;;13.10;6.37;;;;;;;7.79;75.60;100330.97;1712671;84;21556;-81
2021/05/28 02:16:38;;;;;;;9.45;6.25;;;;;;;7.79;75.93;100328.81;1712599;84;21034;-81
2021/05/28 02:19:07;;;;;;;8.80;5.72;;;;;;;7.78;76.10;100333.70;1712697;84;21076;-82
2021/05/28 02:21:34;;;;;;;7.60;4.72;;;;;;;7.78;76.11;100338.48;1712556;84;21061;-82
2021/05/28 02:24:00;;;;;;;5.33;4.42;;;;;;;7.77;76.27;100334.18;1712727;84;21536;-82
2021/05/28 02:26:26;;;;;;;6.12;4.70;;;;;;;7.77;76.31;100341.22;1712675;84;21002;-82
2021/05/28 02:28:52;;;;;;;5.50;4.83;;;;;;;7.75;76.51;100348.70;1712704;84;21037;-82
2021/05/28 02:31:18;;;;;;;6.85;5.15;;;;;;;7.75;76.98;100343.45;1714474;83;21085;-82
2021/05/28 02:33:44;;;;;;;6.00;4.95;;;;;;;7.74;76.90;100345.70;1715604;83;21587;-82
2021/05/28 02:36:11;;;;;;;5.87;4.55;;;;;;;7.74;77.18;100343.55;1715720;83;20994;-82
2021/05/28 02:38:37;;;;;;;5.28;4.75;;;;;;;7.74;76.83;100340.93;1715603;83;21065;-81
2021/05/28 02:41:03;;;;;;;6.35;4.87;;;;;;;7.74;76.96;100349.65;1715768;83;21018;-82
2021/05/28 02:43:30;;;;;;;6.85;4.40;;;;;;;7.75;77.33;100347.39;1714471;83;21038;-82
2021/05/28 02:45:56;;;;;;;5.37;3.87;;;;;;;7.75;77.37;100347.39;1712480;84;21125;-82
2021/05/28 02:48:22;;;;;;;6.90;4.58;;;;;;;7.77;77.23;100347.79;1712460;84;21071;-82
2021/05/28 02:50:49;;;;;;;5.22;4.37;;;;;;;7.79;77.76;100349.83;1712822;84;21589;-82
2021/05/28 02:53:18;;;;;;;6.03;4.30;;;;;;;7.80;77.58;100353.70;1712364;84;21050;-82
2021/05/28 02:55:44;;;;;;;6.78;4.22;;;;;;;7.82;77.88;100353.11;1712610;84;21078;-82
2021/05/28 02:58:10;;;;;;;5.70;4.33;;;;;;;7.84;77.94;100355.19;1713432;83;21057;-82
2021/05/28 03:00:37;;;;;;;7.42;4.47;;;;;;;7.88;78.06;100355.84;1715509;83;21077;-80
2021/05/28 03:03:04;;;;;;;6.50;4.42;;;;;;;7.88;78.03;100359.31;1715622;83;21082;-80
2021/05/28 03:05:30;;;;;;;6.50;4.20;;;;;;;7.90;78.01;100363.18;1715513;83;21049;-80
2021/05/28 03:07:56;;;;;;;6.58;4.67;;;;;;;7.92;78.05;100362.59;1715327;83;21026;-80
2021/05/28 03:10:22;;;;;;;5.03;3.87;;;;;;;7.95;78.23;100358.47;1715700;83;21503;-79
2021/05/28 03:12:48;;;;;;;6.33;4.00;;;;;;;7.97;78.48;100363.17;1715511;83;21081;-79
2021/05/28 03:15:15;;;;;;;5.62;4.33;;;;;;;7.97;78.63;100360.08;1715711;83;21057;-79
2021/05/28 03:17:43;;;;;;;6.90;4.85;;;;;;;8.00;78.58;100366.94;1715475;83;21578;-80
2021/05/28 03:20:24;;;;;;;5.37;4.17;;;;;;;8.03;78.88;100359.30;1715371;83;22359;-82
2021/05/28 03:22:45;;;;;;;6.62;4.20;;;;;;;8.05;78.79;100360.91;1713920;83;21042;-82
2021/05/28 03:25:13;;;;;;;8.20;5.20;;;;;;;8.09;78.67;100361.56;1715822;83;21627;-82
2021/05/28 03:27:40;;;;;;;6.37;4.72;;;;;;;8.11;79.02;100364.48;1712701;83;21077;-82
2021/05/28 03:30:09;;;;;;;8.68;5.00;;;;;;;8.13;79.02;100359.98;1712532;84;21061;-81
2021/05/28 03:32:36;;;;;;;6.65;4.60;;;;;;;8.18;79.20;100364.94;1712458;84;21013;-81
2021/05/28 03:35:04;;;;;;;5.22;4.00;;;;;;;8.21;79.36;100367.38;1712666;84;21033;-82
2021/05/28 03:37:31;;;;;;;6.15;4.92;;;;;;;8.25;79.20;100368.87;1712391;84;21058;-82
2021/05/28 03:39:57;;;;;;;6.17;4.28;;;;;;;8.30;79.45;100367.29;1712633;84;21512;-82
2021/05/28 03:42:23;;;;;;;6.87;4.95;;;;;;;8.36;79.78;100374.33;1712418;84;21030;-82
2021/05/28 03:44:49;;;;;;;10.25;4.95;;;;;;;8.40;79.59;100375.00;1712647;84;21042;-81
2021/05/28 03:47:15;;;;;;;8.03;4.67;;;;;;;8.44;79.99;100377.34;1712456;84;21588;-82
2021/05/28 03:49:42;;;;;;;7.20;5.90;;;;;;;8.50;79.83;100381.38;1712490;84;21093;-81
2021/05/28 03:52:10;;;;;;;6.67;5.42;;;;;;;8.54;80.22;100382.86;1713888;83;21041;-81
2021/05/28 03:54:36;;;;;;;9.78;5.42;;;;;;;8.60;80.41;100381.16;1714516;83;21038;-82
2021/05/28 03:57:03;;;;;;;6.65;5.15;;;;;;;8.67;80.48;100384.25;1712525;84;21101;-82
2021/05/28 03:59:29;;;;;;;5.45;4.28;;;;;;;8.73;80.41;100385.65;1712682;84;21093;-81
2021/05/28 04:01:55;;;;;;;6.47;5.30;;;;;;;8.79;80.38;100387.89;1712403;84;21061;-82
2021/05/28 04:04:22;;;;;;;6.03;4.50;;;;;;;8.84;80.40;100382.69;1712529;84;21123;-82
2021/05/28 04:06:48;;;;;;;10.28;5.30;;;;;;;8.90;80.52;100380.98;1712426;84;21097;-81
2021/05/28 04:09:14;;;;;;;6.67;5.17;;;;;;;8.97;80.64;100383.22;1712681;84;21010;-81
2021/05/28 04:11:40;;;;;;;6.72;5.58;;;;;;;9.02;80.61;100387.73;1712316;84;21551;-81
2021/05/28 04:14:06;;;;;;;7.72;5.45;;;;;;;9.06;80.39;100382.63;1712548;84;21046;-81
2021/05/28 04:16:32;;;;;;;8.93;5.92;;;;;;;9.10;80.44;100383.63;1712434;84;20990;-80
2021/05/28 04:18:58;;;;;;;7.62;5.97;;;;;;;9.15;80.62;100386.81;1712530;84;21026;-79
2021/05/28 04:21:24;;;;;;;6.87;5.67;;;;;;;9.21;80.45;100390.81;1712717;84;21558;-81
2021/05/28 04:23:50;;;;;;;7.05;5.33;;;;;;;9.25;80.58;100387.05;1714739;83;21025;-80
2021/05/28 04:26:16;;;;;;;6.95;5.65;;;;;;;9.29;80.77;100387.22;1715588;83;21073;-80
2021/05/28 04:28:42;;;;;;;7.00;5.35;;;;;;;9.32;80.81;100392.28;1715394;83;21045;-81
2021/05/28 04:31:08;;;;;;;7.70;5.58;;;;;;;9.37;80.90;100385.38;1715537;83;21045;-82
2021/05/28 04:33:34;;;;;;;8.55;4.95;;;;;;;9.40;80.96;100383.38;1715509;83;21058;-80
2021/05/28 04:36:00;;;;;;;7.47;5.60;;;;;;;9.46;80.76;100382.62;1715657;83;20998;-79
2021/05/28 04:38:26;;;;;;;7.25;5.12;;;;;;;9.49;80.73;100387.20;1714012;83;21014;-79
2021/05/28 04:40:53;;;;;;;6.87;5.67;;;;;;;9.55;80.97;100391.22;1712429;83;21113;-80
2021/05/28 04:43:20;;;;;;;6.67;5.87;;;;;;;9.59;81.19;100392.22;1712434;84;21105;-80
2021/05/28 04:45:47;;;;;;;6.85;4.75;;;;;;;9.63;80.82;100391.53;1712556;84;21017;-80
2021/05/28 04:48:13;;;;;;;6.97;5.22;;;;;;;9.68;80.71;100391.25;1712362;84;21018;-80
2021/05/28 04:50:39;;;;;;;8.60;5.45;;;;;;;9.71;80.78;100390.56;1713099;83;21045;-80
2021/05/28 04:53:07;;;;;;;8.93;5.45;;;;;;;9.75;80.92;100391.19;1715432;83;21059;-79
2021/05/28 04:55:33;;;;;;;9.28;5.30;;;;;;;9.79;80.94;100396.61;1715686;83;21042;-80
2021/05/28 04:58:00;;;;;;;7.72;5.33;;;;;;;9.82;80.92;100393.30;1715431;83;21069;-79
2021/05/28 05:00:27;;;;;;;8.95;5.97;;;;;;;9.86;80.79;100396.56;1715494;83;21121;-80
2021/05/28 05:02:54;;;;;;;7.67;5.50;;;;;;;9.89;80.87;100390.24;1715435;83;21081;-80
2021/05/28 05:05:20;;;;;;;8.35;5.80;;;;;;;9.91;80.93;100395.78;1715806;83;21574;-80
2021/05/28 05:07:46;;;;;;;8.65;5.62;;;;;;;9.94;80.73;100399.53;1715554;83;21077;-80
2021/05/28 05:10:13;;;;;;;6.58;5.75;;;;;;;9.97;80.82;100401.09;1715671;83;21037;-80
2021/05/28 05:12:40;;;;;;;8.83;5.85;;;;;;;10.00;80.67;100404.83;1715404;83;21651;-79
2021/05/28 05:15:08;;;;;;;6.90;5.28;;;;;;;10.03;80.95;100401.98;1715779;83;20997;-80
2021/05/28 05:17:34;;;;;;;11.88;6.10;;;;;;;10.07;80.78;100404.80;1715774;83;21030;-80
2021/05/28 05:20:00;;;;;;;6.92;5.75;;;;;;;10.12;81.16;100408.42;1713446;83;21053;-80
2021/05/28 05:22:26;;;;;;;8.38;5.78;;;;;;;10.17;81.09;100405.85;1712296;83;21002;-80
2021/05/28 05:24:53;;;;;;;9.60;6.53;;;;;;;10.22;80.92;100408.16;1712653;84;21126;-79
2021/05/28 05:27:19;;;;;;;7.17;5.87;;;;;;;10.26;80.88;100413.61;1712542;83;20975;-80
2021/05/28 05:29:45;;;;;;;6.33;5.20;;;;;;;10.29;80.79;100411.59;1712534;83;21006;-81
2021/05/28 05:32:11;;;;;;;8.00;6.53;;;;;;;10.35;80.88;100406.37;1712364;83;21094;-79
2021/05/28 05:34:37;;;;;;;7.55;6.30;;;;;;;10.39;80.95;100407.84;1712527;83;21025;-80
2021/05/28 05:37:03;;;;;;;9.30;6.87;;;;;;;10.47;81.11;100409.95;1712298;84;21121;-81
2021/05/28 05:39:31;;;;;;;9.58;6.50;;;;;;;10.54;81.20;100409.88;1712724;84;21045;-79
2021/05/28 05:41:59;;;;;;;8.83;6.50;;;;;;;10.65;81.41;100409.11;1712256;84;21033;-80
2021/05/28 05:44:25;;;;;;;9.63;6.37;;;;;;;10.74;80.95;100413.73;1712383;84;21038;-79
2021/05/28 05:46:51;;;;;;;10.18;6.20;;;;;;;10.82;80.88;100409.22;1712501;83;21037;-79
2021/05/28 05:49:17;;;;;;;6.70;5.85;;;;;;;10.90;80.93;100417.44;1715583;83;21563;-77
2021/05/28 05:51:43;;;;;;;7.40;6.70;;;;;;;10.95;80.54;100416.61;1715469;83;21077;-76
2021/05/28 05:54:10;;;;;;;8.23;6.17;;;;;;;11.00;80.55;100419.29;1715634;83;21022;-76
2021/05/28 05:56:36;;;;;;;6.90;5.55;;;;;;;11.04;80.38;100419.91;1715400;83;21053;-76
2021/05/28 05:59:03;;;;;;;8.20;5.92;;;;;;;11.10;80.17;100418.14;1713826;83;21619;-76
2021/05/28 06:01:29;;;;;;;8.40;6.65;;;;;;;11.14;80.08;100421.40;1714843;83;21362;-76
2021/05/28 06:03:55;;;;;;;7.35;6.20;;;;;;;11.19;80.23;100424.08;1714790;83;21068;-76
2021/05/28 06:06:21;;;;;;;6.90;6.08;;;;;;;11.24;80.21;100425.88;1714864;83;21021;-76
2021/05/28 06:08:47;;;;;;;7.47;5.72;;;;;;;11.27;79.94;100433.58;1714771;83;21018;-77
2021/05/28 06:11:13;;;;;;;6.22;5.60;;;;;;;11.30;79.83;100431.69;1715016;83;21018;-76
2021/05/28 06:13:39;;;;;;;7.20;6.17;;;;;;;11.33;79.96;100435.42;1714742;83;21516;-77
2021/05/28 06:16:05;;;;;;;7.80;6.65;;;;;;;11.36;80.12;100443.96;1713145;83;21021;-76
2021/05/28 06:18:31;;;;;;;8.58;6.25;;;;;;;11.39;79.71;100441.58;1711687;83;21093;-76
2021/05/28 06:20:58;;;;;;;6.83;5.70;;;;;;;11.40;79.85;100442.77;1714364;83;21052;-76
2021/05/28 06:23:24;;;;;;;7.65;5.85;;;;;;;11.45;79.77;100447.25;1714399;83;21539;-78
2021/05/28 06:25:50;;;;;;;9.25;6.08;;;;;;;11.49;79.57;100450.02;1714927;83;21037;-76
2021/05/28 06:28:16;;;;;;;7.58;6.75;;;;;;;11.52;79.67;100443.67;1714649;83;21717;-76
2021/05/28 06:30:42;;;;;;;9.88;7.25;;;;;;;11.58;79.73;100446.31;1714792;83;21045;-76
2021/05/28 06:33:09;;;;;;;7.70;6.90;;;;;;;11.67;79.77;100446.47;1714838;83;21041;-76
2021/05/28 06:35:37;;;;;;;8.80;6.70;;;;;;;11.76;79.71;100453.36;1714420;83;21478;-76
2021/05/28 06:38:04;;;;;;;10.18;6.65;;;;;;;11.81;79.42;100454.67;1694953;83;21072;-76
2021/05/28 06:40:32;;;;;;;8.25;6.97;;;;;;;11.86;79.42;100452.56;1713261;83;21021;-76
2021/05/28 06:42:59;;;;;;;8.50;6.67;;;;;;;11.90;79.47;100453.17;1713814;82;21057;-76
2021/05/28 06:45:25;;;;;;;8.60;7.15;;;;;;;11.95;79.20;100451.03;1718461;82;21053;-76
2021/05/28 06:47:51;;;;;;;7.72;6.58;;;;;;;11.98;78.86;100448.16;1716849;82;21009;-75
2021/05/28 06:50:18;;;;;;;7.17;6.45;;;;;;;11.99;78.83;100449.83;1717623;82;21108;-76
2021/05/28 06:52:46;;;;;;;7.42;6.47;;;;;;;12.02;78.64;100448.28;1735053;82;21071;-76
2021/05/28 06:55:12;;;;;;;8.40;6.03;;;;;;;12.03;78.58;100451.27;1718565;82;21127;-77
2021/05/28 06:57:39;;;;;;;8.00;5.12;;;;;;;12.05;78.11;100448.05;1726517;82;21617;-76
2021/05/28 07:00:08;;;;;;;6.45;5.67;;;;;;;12.08;77.95;100447.81;1712047;82;21081;-77
2021/05/28 07:02:35;;;;;;;6.60;5.90;;;;;;;12.12;77.97;100447.93;1704920;82;21037;-76
2021/05/28 07:05:01;;;;;;;8.60;6.72;;;;;;;12.18;78.20;100445.30;1718968;82;21073;-76
2021/05/28 07:07:27;;;;;;;5.80;4.90;;;;;;;12.26;78.29;100446.86;1713824;82;21567;-76
2021/05/28 07:09:53;;;;;;;5.60;5.10;;;;;;;12.35;77.86;100446.63;1722466;82;21053;-75
2021/05/28 07:12:19;;;;;;;5.87;5.05;;;;;;;12.44;77.71;100451.21;1717614;82;21045;-77
2021/05/28 07:14:45;;;;;;;5.75;5.12;;;;;;;12.51;77.11;100447.11;1709545;83;21045;-76
2021/05/28 07:17:11;;;;;;;6.17;5.22;;;;;;;12.54;77.15;100456.63;1719068;82;20986;-76
2021/05/28 07:19:37;;;;;;;6.05;5.45;;;;;;;12.59;77.76;100453.95;1720722;82;21651;-76
2021/05/28 07:22:03;;;;;;;7.10;5.47;;;;;;;12.68;77.59;100458.53;1715721;82;21041;-77
2021/05/28 07:24:29;;;;;;;7.58;5.35;;;;;;;12.73;76.38;100462.12;1716021;82;21002;-76
2021/05/28 07:26:55;;;;;;;5.80;5.20;;;;;;;12.72;76.25;100468.39;1715711;82;21024;-76
2021/05/28 07:29:21;;;;;;;5.60;5.10;;;;;;;12.73;76.33;100471.88;1713080;82;21030;-76
2021/05/28 07:31:47;;;;;;;6.83;6.22;;;;;;;12.71;76.15;100463.23;1713280;83;21026;-77
2021/05/28 07:34:13;;;;;;;6.67;6.08;;;;;;;12.67;76.25;100468.77;1711621;83;21370;-76
2021/05/28 07:36:39;;;;;;;5.72;5.17;;;;;;;12.64;76.45;100470.82;1715642;82;21033;-76
2021/05/28 07:39:06;;;;;;;6.03;5.40;;;;;;;12.62;76.69;100473.57;1714697;82;21327;-77
2021/05/28 07:41:32;;;;;;;6.78;5.67;;;;;;;12.63;76.73;100463.81;1717168;82;21026;-76
2021/05/28 07:43:59;;;;;;;8.70;5.42;;;;;;;12.66;76.58;100459.61;1743381;82;21036;-77
2021/05/28 07:46:25;;;;;;;7.17;5.42;;;;;;;12.67;76.45;100461.31;1743764;82;21010;-76
2021/05/28 07:48:51;;;;;;;5.47;4.97;;;;;;;12.74;77.20;100452.40;1743693;82;21198;-77
2021/05/28 07:51:17;;;;;;;6.72;4.90;;;;;;;12.79;76.43;100446.23;1743825;81;21037;-77
2021/05/28 07:53:44;;;;;;;6.55;5.85;;;;;;;12.87;76.44;100452.61;1724024;82;21080;-76
2021/05/28 07:56:10;;;;;;;5.20;4.58;;;;;;;13.02;75.95;100453.66;1689457;83;21096;-76
2021/05/28 07:58:36;;;;;;;4.97;4.40;;;;;;;13.11;76.34;100454.25;1713912;83;21546;-76
2021/05/28 08:01:03;;;;;;;4.62;4.05;;;;;;;13.22;75.69;100444.92;1713962;83;21044;-77
2021/05/28 08:03:29;;;;;;;4.42;4.03;;;;;;;13.29;75.36;100443.52;1713837;83;21088;-77
2021/05/28 08:05:55;;;;;;;4.87;4.20;;;;;;;13.33;74.61;100436.98;1713814;83;21099;-76
2021/05/28 08:08:26;;;;;;;5.08;4.15;;;;;;;13.31;74.83;100442.89;1713991;83;21108;-77
2021/05/28 08:10:49;;;;;;;4.95;4.45;;;;;;;13.30;75.17;100451.81;1686491;84;21093;-77
2021/05/28 08:13:16;;;;;;;6.50;5.20;;;;;;;13.24;75.47;100452.77;1711237;83;21053;-77
2021/05/28 08:15:42;;;;;;;5.15;4.65;;;;;;;13.15;75.96;100455.19;1711252;84;21033;-79
2021/05/28 08:18:09;;;;;;;6.15;5.17;;;;;;;13.09;76.20;100452.19;1710888;84;21076;-78
2021/05/28 08:20:34;;;;;;;7.28;6.58;;;;;;;13.03;76.93;100448.71;1711103;84;21763;-78
2021/05/28 08:23:01;;;;;;;6.78;5.20;;;;;;;13.03;77.55;100446.06;1681765;85;21107;-78
2021/05/28 08:25:28;;;;;;;7.37;5.37;;;;;;;13.04;78.11;100443.30;1656418;85;21626;-77
2021/05/28 08:27:55;;;;;;;7.42;5.90;;;;;;;13.10;77.97;100446.78;1681565;85;21084;-77
2021/05/28 08:30:43;;;;;;;6.37;5.75;;;;;;;13.20;78.30;100446.87;1661143;85;21028;-76
2021/05/28 08:33:12;;;;;;;4.87;3.98;;;;;;;13.28;78.25;100447.59;1697010;84;21048;-78
2021/05/28 08:35:42;;;;;;;4.45;3.85;;;;;;;13.31;77.51;100444.21;1681752;85;21639;-77
2021/05/28 08:38:10;;;;;;;3.65;3.15;;;;;;;13.32;77.02;100447.70;1681836;85;21050;-78
2021/05/28 08:40:37;;;;;;;7.20;3.47;;;;;;;13.34;76.61;100443.96;1681579;85;21082;-78
2021/05/28 08:43:06;;;;;;;4.17;3.67;;;;;;;13.37;77.20;100446.36;1681073;84;21057;-78
2021/05/28 08:45:39;;;;;;;4.97;4.47;;;;;;;13.41;76.28;100441.65;1678856;85;21070;-78
2021/05/28 08:48:08;;;;;;;5.50;4.00;;;;;;;13.46;76.56;100443.45;1678989;85;21653;-78
2021/05/28 08:50:35;;;;;;;5.10;4.08;;;;;;;13.58;77.00;100443.73;1679142;85;21077;-78
2021/05/28 08:53:05;;;;;;;4.60;4.20;;;;;;;13.77;77.09;100445.69;1678265;84;21056;-79
2021/05/28 08:55:32;;;;;;;6.33;4.03;;;;;;;13.98;78.18;100439.53;1681352;85;21366;-78
2021/05/28 08:57:58;;;;;;;4.92;3.08;;;;;;;14.15;75.85;100437.63;1681591;85;21107;-78
2021/05/28 09:00:28;;;;;;;4.50;3.72;;;;;;;14.21;74.70;100436.24;1676093;84;21622;-81
2021/05/28 09:02:54;;;;;;;7.22;3.35;;;;;;;14.20;74.34;100437.22;1672675;84;21153;-81
2021/05/28 09:05:23;;;;;;;4.22;3.83;;;;;;;14.16;74.59;100442.45;1680122;84;21137;-80
2021/05/28 09:07:56;;;;;;;4.67;3.05;;;;;;;14.11;75.21;100449.45;1656924;84;21100;-81
2021/05/28 09:10:36;;;;;;;3.72;3.22;;;;;;;14.04;75.08;100454.45;1659243;84;21092;-83
2021/05/28 09:13:13;;;;;;;2.35;1.90;;;;;;;13.93;76.01;100453.20;1670080;84;21380;-84
2021/05/28 09:15:43;;;;;;;2.35;1.50;;;;;;;13.81;75.57;100447.11;1699408;84;21082;-83
2021/05/28 09:18:10;;;;;;;2.80;2.40;;;;;;;13.71;76.00;100446.20;1667675;83;21097;-83
2021/05/28 09:20:37;;;;;;;3.75;3.22;;;;;;;13.61;75.93;100449.27;1681196;83;21038;-85
2021/05/28 09:23:18;;;;;;;3.72;3.37;;;;;;;13.49;76.54;100439.22;1694081;84;21050;-86
2021/05/28 09:26:02;;;;;;;4.28;3.85;;;;;;;13.45;76.94;100436.93;1681632;85;21083;-85
2021/05/28 09:28:33;;;;;;;4.70;4.30;;;;;;;13.41;77.74;100440.81;1709890;84;21023;-84
2021/05/28 09:31:03;;;;;;;5.08;4.25;;;;;;;13.43;78.19;100446.84;1697414;82;21073;-85
2021/05/28 09:33:39;;;;;;;4.78;4.15;;;;;;;13.47;78.43;100441.14;1680921;84;21016;-85
2021/05/28 09:36:13;;;;;;;5.55;4.45;;;;;;;13.53;78.51;100431.85;1681806;85;21355;-83
2021/05/28 09:38:40;;;;;;;6.62;4.50;;;;;;;13.59;78.78;100439.30;1681427;83;21033;-82
2021/05/28 09:41:07;;;;;;;6.05;4.78;;;;;;;13.63;78.39;100439.88;1679335;85;21107;-82
2021/05/28 09:43:34;;;;;;;5.47;4.97;;;;;;;13.66;78.73;100438.30;1696491;84;21046;-83
2021/05/28 09:46:04;;;;;;;5.60;5.10;;;;;;;13.73;78.13;100443.44;1710478;84;21022;-85
2021/05/28 09:48:32;;;;;;;6.62;5.42;;;;;;;13.76;77.69;100443.19;1708549;83;21545;-82
2021/05/28 09:51:07;;;;;;;8.43;5.75;;;;;;;13.75;77.67;100443.64;1710557;83;21129;-82
2021/05/28 09:53:41;;;;;;;5.12;4.62;;;;;;;13.78;77.77;100443.38;1710608;84;21070;-82
2021/05/28 09:56:27;;;;;;;5.50;4.85;;;;;;;13.79;77.32;100442.93;1710497;83;21085;-82
2021/05/28 09:59:01;;;;;;;4.40;3.45;;;;;;;13.82;76.94;100437.37;1710584;83;21058;-82
2021/05/28 10:01:28;;;;;;;4.85;3.50;;;;;;;13.86;77.01;100440.11;1710627;83;21061;-83
2021/05/28 10:04:12;;;;;;;3.77;3.33;;;;;;;13.91;75.76;100441.03;1710428;83;21082;-81
2021/05/28 10:06:44;;;;;;;4.87;4.37;;;;;;;13.97;76.04;100437.37;1681695;85;21048;-81
2021/05/28 10:09:12;;;;;;;5.40;4.17;;;;;;;14.13;76.13;100431.61;1682302;85;21060;-80
2021/05/28 10:11:40;;;;;;;4.05;3.47;;;;;;;14.29;76.57;100441.25;1681718;85;21063;-82
2021/05/28 10:14:08;;;;;;;4.17;3.77;;;;;;;14.35;74.71;100439.06;1682302;85;21071;-80
2021/05/28 10:16:35;;;;;;;6.45;4.67;;;;;;;14.34;74.57;100443.50;1681157;84;21067;-80
2021/05/28 10:19:01;;;;;;;4.28;3.77;;;;;;;14.32;74.94;100442.81;1679510;84;21064;-81
2021/05/28 10:21:28;;;;;;;5.37;4.47;;;;;;;14.33;74.69;100440.99;1666897;84;21602;-80
2021/05/28 10:23:56;;;;;;;4.22;3.83;;;;;;;14.31;75.06;100441.98;1666705;84;21038;-80
2021/05/28 10:26:29;;;;;;;4.92;3.92;;;;;;;14.30;74.75;100437.63;1665992;84;21014;-80
2021/05/28 10:28:56;;;;;;;5.05;4.50;;;;;;;14.31;74.55;100427.84;1669389;84;21589;-80
2021/05/28 10:31:58;;;;;;;5.50;4.87;;;;;;;14.40;75.69;100431.03;1670166;84;21101;-81
2021/05/28 10:34:27;;;;;;;4.03;3.50;;;;;;;14.64;76.29;100420.59;1673822;84;21115;-80
2021/05/28 10:36:56;;;;;;;5.00;3.35;;;;;;;14.96;73.90;100418.57;1684830;84;21080;-80
2021/05/28 10:39:23;;;;;;;6.95;5.20;;;;;;;15.17;74.94;100415.82;1681551;85;21044;-80
2021/05/28 10:41:54;;;;;;;4.42;3.50;;;;;;;15.39;72.87;100416.52;1681634;85;21605;-81
2021/05/28 10:44:26;;;;;;;3.60;3.33;;;;;;;15.56;73.11;100409.64;1681676;83;21151;-80
2021/05/28 10:47:16;;;;;;;3.72;3.27;;;;;;;15.71;73.80;100417.08;1682086;85;21139;-80
2021/05/28 10:49:53;;;;;;;2.87;2.40;;;;;;;15.86;72.33;100425.47;1709796;84;21089;-79
2021/05/28 10:52:36;;;;;;;3.67;3.30;;;;;;;15.87;71.22;100422.31;1710239;84;21117;-79
2021/05/28 10:55:10;;;;;;;;;;;;;;;15.85;71.43;100426.93;1713121;83;21093;-80
2021/05/28 10:57:51;;;;;;;2.52;2.20;;;;;;;15.80;70.71;100420.72;1685997;84;20198;-80
2021/05/28 11:00:25;;;;;;;2.72;2.52;;;;;;;15.80;70.29;100414.06;1710378;83;21050;-80
2021/05/28 11:03:00;;;;;;;3.62;1.95;;;;;;;15.76;70.01;100414.02;1693493;83;21073;-78
2021/05/28 11:05:44;;;;;;;4.25;2.33;;;;;;;15.80;70.39;100419.39;1677396;85;22415;-80
2021/05/28 11:08:45;;;;;;;2.83;1.90;;;;;;;15.89;70.01;100407.89;1653730;87;21341;-80
2021/05/28 11:11:10;;;;;;;3.87;2.05;;;;;;;16.08;70.67;100413.63;1677865;84;21103;-82
2021/05/28 11:14:00;;;;;;;1.75;1.65;;;;;;;16.43;68.34;100407.28;1665496;85;21128;-79
2021/05/28 11:16:26;;;;;;;1.82;1.70;;;;;;;16.60;67.91;100399.33;1644185;85;21116;-79
2021/05/28 11:18:52;;;;;;;1.98;1.77;;;;;;;16.83;68.19;100401.62;1680895;84;21589;-79
2021/05/28 11:21:21;;;;;;;1.67;1.55;;;;;;;16.97;67.07;100398.94;1697542;84;21065;-78
2021/05/28 11:23:51;;;;;;;1.60;1.45;;;;;;;17.01;67.31;100397.17;1675937;84;21070;-78
2021/05/28 11:26:25;;;;;;;2.00;1.80;;;;;;;17.05;65.46;100401.20;1675531;84;21572;-79
2021/05/28 11:29:01;;;;;;;2.55;2.00;;;;;;;17.08;64.50;100404.90;1695562;84;21106;-79
2021/05/28 11:31:30;;;;;;;3.92;2.12;;;;;;;16.94;65.24;100410.73;1665626;84;21105;-80
2021/05/28 11:34:01;;;;;;;2.17;1.95;;;;;;;16.77;65.31;100404.38;1696750;83;21092;-79